Terminal Aerodrome Forecast
Issued by NWS

Home | Current Version | Previous Version | Text Only | Print | Product List | Glossary On
Versions: 1 2 3 4 5 6 7 8 9 10 11 12 13
641
FTUS42 KMLB 292335
TAFSFB
TAF
KSFB 292335Z 3000/3024 22006KT P6SM FEW035 SCT100 BKN250
     FM300200 21004KT P6SM SCT070 BKN250
     FM301500 19004KT P6SM SCT040 SCT100 SCT250
     FM301900 VRB04KT P6SM VCSH SCT040 SCT080=

USA.gov is the U.S. government's official web portal to all federal, state and local government web resources and services.